sensor_id;sensor_type;location;lat;lon;timestamp;P1;durP1;ratioP1;P2;durP2;ratioP2
32216;SDS011;67098;51.140;4.088;2024-02-28T00:00:03;22.02;;;9.80;;
32216;SDS011;67098;51.140;4.088;2024-02-28T00:02:30;18.90;;;9.90;;
32216;SDS011;67098;51.140;4.088;2024-02-28T00:04:56;19.40;;;10.10;;
32216;SDS011;67098;51.140;4.088;2024-02-28T00:07:24;19.83;;;9.80;;
32216;SDS011;67098;51.140;4.088;2024-02-28T00:09:50;19.05;;;9.55;;
32216;SDS011;67098;51.140;4.088;2024-02-28T00:12:16;19.52;;;9.77;;
32216;SDS011;67098;51.140;4.088;2024-02-28T00:14:42;16.85;;;9.43;;
32216;SDS011;67098;51.140;4.088;2024-02-28T00:17:07;17.23;;;9.98;;
32216;SDS011;67098;51.140;4.088;2024-02-28T00:19:33;18.48;;;9.98;;
32216;SDS011;67098;51.140;4.088;2024-02-28T00:21:59;21.23;;;10.55;;
32216;SDS011;67098;51.140;4.088;2024-02-28T00:24:26;22.50;;;9.85;;
32216;SDS011;67098;51.140;4.088;2024-02-28T00:26:52;17.13;;;9.13;;
32216;SDS011;67098;51.140;4.088;2024-02-28T00:29:17;22.40;;;10.45;;
32216;SDS011;67098;51.140;4.088;2024-02-28T00:31:43;19.75;;;9.93;;
32216;SDS011;67098;51.140;4.088;2024-02-28T00:34:09;16.00;;;10.20;;
32216;SDS011;67098;51.140;4.088;2024-02-28T00:36:35;16.55;;;9.63;;
32216;SDS011;67098;51.140;4.088;2024-02-28T00:39:01;20.05;;;10.10;;
32216;SDS011;67098;51.140;4.088;2024-02-28T00:41:26;19.20;;;9.50;;
32216;SDS011;67098;51.140;4.088;2024-02-28T00:43:52;19.60;;;10.52;;
32216;SDS011;67098;51.140;4.088;2024-02-28T00:46:18;18.83;;;10.05;;
32216;SDS011;67098;51.140;4.088;2024-02-28T00:48:44;19.98;;;10.60;;
32216;SDS011;67098;51.140;4.088;2024-02-28T00:51:09;19.05;;;9.93;;
32216;SDS011;67098;51.140;4.088;2024-02-28T00:53:35;14.40;;;9.23;;
32216;SDS011;67098;51.140;4.088;2024-02-28T00:56:02;21.60;;;10.52;;
32216;SDS011;67098;51.140;4.088;2024-02-28T00:58:28;21.70;;;10.48;;
32216;SDS011;67098;51.140;4.088;2024-02-28T01:00:55;18.30;;;9.93;;
32216;SDS011;67098;51.140;4.088;2024-02-28T01:03:21;22.52;;;10.43;;
32216;SDS011;67098;51.140;4.088;2024-02-28T01:05:48;16.38;;;10.60;;
32216;SDS011;67098;51.140;4.088;2024-02-28T01:08:15;18.98;;;10.38;;
32216;SDS011;67098;51.140;4.088;2024-02-28T01:10:43;21.05;;;10.77;;
32216;SDS011;67098;51.140;4.088;2024-02-28T01:13:09;20.42;;;10.82;;
32216;SDS011;67098;51.140;4.088;2024-02-28T01:15:34;20.48;;;10.68;;
32216;SDS011;67098;51.140;4.088;2024-02-28T01:18:00;20.33;;;11.57;;
32216;SDS011;67098;51.140;4.088;2024-02-28T01:20:26;19.67;;;9.93;;
32216;SDS011;67098;51.140;4.088;2024-02-28T01:22:51;21.25;;;11.27;;
32216;SDS011;67098;51.140;4.088;2024-02-28T01:25:17;18.48;;;10.52;;
32216;SDS011;67098;51.140;4.088;2024-02-28T01:27:43;20.60;;;11.07;;
32216;SDS011;67098;51.140;4.088;2024-02-28T01:30:09;18.70;;;10.77;;
32216;SDS011;67098;51.140;4.088;2024-02-28T01:32:35;19.35;;;10.95;;
32216;SDS011;67098;51.140;4.088;2024-02-28T01:35:04;17.17;;;10.50;;
32216;SDS011;67098;51.140;4.088;2024-02-28T01:37:30;20.60;;;10.73;;
32216;SDS011;67098;51.140;4.088;2024-02-28T01:39:57;23.63;;;10.73;;
32216;SDS011;67098;51.140;4.088;2024-02-28T01:42:22;20.48;;;10.43;;
32216;SDS011;67098;51.140;4.088;2024-02-28T01:44:48;20.15;;;10.35;;
32216;SDS011;67098;51.140;4.088;2024-02-28T01:47:14;18.27;;;10.82;;
32216;SDS011;67098;51.140;4.088;2024-02-28T01:49:40;20.33;;;11.05;;
32216;SDS011;67098;51.140;4.088;2024-02-28T01:52:08;20.10;;;11.45;;
32216;SDS011;67098;51.140;4.088;2024-02-28T01:54:35;21.75;;;11.95;;
32216;SDS011;67098;51.140;4.088;2024-02-28T01:57:01;18.35;;;11.13;;
32216;SDS011;67098;51.140;4.088;2024-02-28T01:59:27;21.35;;;12.45;;
32216;SDS011;67098;51.140;4.088;2024-02-28T02:01:55;19.25;;;11.80;;
32216;SDS011;67098;51.140;4.088;2024-02-28T02:04:20;24.38;;;11.63;;
32216;SDS011;67098;51.140;4.088;2024-02-28T02:06:46;19.73;;;11.32;;
32216;SDS011;67098;51.140;4.088;2024-02-28T02:09:14;25.15;;;11.95;;
32216;SDS011;67098;51.140;4.088;2024-02-28T02:11:42;20.42;;;11.93;;
32216;SDS011;67098;51.140;4.088;2024-02-28T02:14:07;19.70;;;11.77;;
32216;SDS011;67098;51.140;4.088;2024-02-28T02:16:33;23.30;;;11.98;;
32216;SDS011;67098;51.140;4.088;2024-02-28T02:18:59;19.67;;;12.55;;
32216;SDS011;67098;51.140;4.088;2024-02-28T02:21:26;26.42;;;11.90;;
32216;SDS011;67098;51.140;4.088;2024-02-28T02:23:56;22.33;;;11.20;;
32216;SDS011;67098;51.140;4.088;2024-02-28T02:26:22;16.90;;;11.50;;
32216;SDS011;67098;51.140;4.088;2024-02-28T02:28:48;22.42;;;12.82;;
32216;SDS011;67098;51.140;4.088;2024-02-28T02:31:13;18.75;;;11.38;;
32216;SDS011;67098;51.140;4.088;2024-02-28T02:33:39;27.02;;;11.15;;
32216;SDS011;67098;51.140;4.088;2024-02-28T02:36:05;24.58;;;11.60;;
32216;SDS011;67098;51.140;4.088;2024-02-28T02:38:31;19.77;;;10.55;;
32216;SDS011;67098;51.140;4.088;2024-02-28T02:40:57;22.05;;;11.77;;
32216;SDS011;67098;51.140;4.088;2024-02-28T02:43:23;19.83;;;10.63;;
32216;SDS011;67098;51.140;4.088;2024-02-28T02:45:48;17.35;;;10.98;;
32216;SDS011;67098;51.140;4.088;2024-02-28T02:48:14;18.90;;;11.68;;
32216;SDS011;67098;51.140;4.088;2024-02-28T02:50:40;20.10;;;10.93;;
32216;SDS011;67098;51.140;4.088;2024-02-28T02:53:07;24.35;;;11.95;;
32216;SDS011;67098;51.140;4.088;2024-02-28T02:55:34;20.75;;;11.93;;
32216;SDS011;67098;51.140;4.088;2024-02-28T02:58:00;22.08;;;11.45;;
32216;SDS011;67098;51.140;4.088;2024-02-28T03:00:27;22.30;;;11.43;;
32216;SDS011;67098;51.140;4.088;2024-02-28T03:02:53;21.10;;;12.18;;
32216;SDS011;67098;51.140;4.088;2024-02-28T03:05:19;24.27;;;11.63;;
32216;SDS011;67098;51.140;4.088;2024-02-28T03:07:45;24.10;;;11.90;;
32216;SDS011;67098;51.140;4.088;2024-02-28T03:10:11;25.70;;;12.35;;
32216;SDS011;67098;51.140;4.088;2024-02-28T03:12:37;22.42;;;11.80;;
32216;SDS011;67098;51.140;4.088;2024-02-28T03:15:02;20.52;;;11.35;;
32216;SDS011;67098;51.140;4.088;2024-02-28T03:17:29;24.95;;;12.18;;
32216;SDS011;67098;51.140;4.088;2024-02-28T03:19:54;23.48;;;11.80;;
32216;SDS011;67098;51.140;4.088;2024-02-28T03:22:21;26.17;;;12.68;;
32216;SDS011;67098;51.140;4.088;2024-02-28T03:24:47;25.98;;;12.98;;
32216;SDS011;67098;51.140;4.088;2024-02-28T03:27:14;19.77;;;11.85;;
32216;SDS011;67098;51.140;4.088;2024-02-28T03:29:39;24.15;;;12.05;;
32216;SDS011;67098;51.140;4.088;2024-02-28T03:32:05;24.17;;;12.10;;
32216;SDS011;67098;51.140;4.088;2024-02-28T03:34:31;22.38;;;11.73;;
32216;SDS011;67098;51.140;4.088;2024-02-28T03:36:57;22.85;;;12.18;;
32216;SDS011;67098;51.140;4.088;2024-02-28T03:39:23;21.35;;;11.95;;
32216;SDS011;67098;51.140;4.088;2024-02-28T03:41:49;24.33;;;12.50;;
32216;SDS011;67098;51.140;4.088;2024-02-28T03:44:15;23.92;;;12.13;;
32216;SDS011;67098;51.140;4.088;2024-02-28T03:46:40;20.55;;;11.27;;
32216;SDS011;67098;51.140;4.088;2024-02-28T03:49:06;22.25;;;12.23;;
32216;SDS011;67098;51.140;4.088;2024-02-28T03:51:32;21.30;;;13.10;;
32216;SDS011;67098;51.140;4.088;2024-02-28T03:54:04;22.00;;;12.35;;
32216;SDS011;67098;51.140;4.088;2024-02-28T03:56:30;23.70;;;12.60;;
32216;SDS011;67098;51.140;4.088;2024-02-28T03:58:55;28.65;;;14.63;;
32216;SDS011;67098;51.140;4.088;2024-02-28T04:01:21;26.52;;;13.15;;
32216;SDS011;67098;51.140;4.088;2024-02-28T04:03:47;26.08;;;13.38;;
32216;SDS011;67098;51.140;4.088;2024-02-28T04:06:13;23.25;;;13.50;;
32216;SDS011;67098;51.140;4.088;2024-02-28T04:08:40;25.05;;;13.30;;
32216;SDS011;67098;51.140;4.088;2024-02-28T04:11:06;36.22;;;13.98;;
32216;SDS011;67098;51.140;4.088;2024-02-28T04:13:32;30.17;;;14.60;;
32216;SDS011;67098;51.140;4.088;2024-02-28T04:15:58;28.88;;;13.82;;
32216;SDS011;67098;51.140;4.088;2024-02-28T04:18:24;23.23;;;14.27;;
32216;SDS011;67098;51.140;4.088;2024-02-28T04:20:49;30.42;;;13.68;;
32216;SDS011;67098;51.140;4.088;2024-02-28T04:23:15;24.27;;;12.95;;
32216;SDS011;67098;51.140;4.088;2024-02-28T04:25:42;24.80;;;12.98;;
32216;SDS011;67098;51.140;4.088;2024-02-28T04:28:08;28.50;;;13.98;;
32216;SDS011;67098;51.140;4.088;2024-02-28T04:30:34;19.48;;;12.00;;
32216;SDS011;67098;51.140;4.088;2024-02-28T04:32:59;30.10;;;12.95;;
32216;SDS011;67098;51.140;4.088;2024-02-28T04:35:25;24.42;;;12.18;;
32216;SDS011;67098;51.140;4.088;2024-02-28T04:37:51;25.73;;;12.82;;
32216;SDS011;67098;51.140;4.088;2024-02-28T04:40:17;21.60;;;12.10;;
32216;SDS011;67098;51.140;4.088;2024-02-28T04:42:43;24.65;;;12.43;;
32216;SDS011;67098;51.140;4.088;2024-02-28T04:45:09;27.13;;;12.02;;
32216;SDS011;67098;51.140;4.088;2024-02-28T04:47:35;30.52;;;12.80;;
32216;SDS011;67098;51.140;4.088;2024-02-28T04:50:02;27.42;;;13.48;;
32216;SDS011;67098;51.140;4.088;2024-02-28T04:52:30;26.48;;;13.05;;
32216;SDS011;67098;51.140;4.088;2024-02-28T04:54:59;24.73;;;12.98;;
32216;SDS011;67098;51.140;4.088;2024-02-28T04:57:25;27.67;;;12.88;;
32216;SDS011;67098;51.140;4.088;2024-02-28T04:59:51;29.90;;;12.77;;
32216;SDS011;67098;51.140;4.088;2024-02-28T05:02:17;28.50;;;13.77;;
32216;SDS011;67098;51.140;4.088;2024-02-28T05:04:43;31.63;;;13.77;;
32216;SDS011;67098;51.140;4.088;2024-02-28T05:07:09;23.63;;;12.77;;
32216;SDS011;67098;51.140;4.088;2024-02-28T05:09:34;24.55;;;12.85;;
32216;SDS011;67098;51.140;4.088;2024-02-28T05:12:01;27.00;;;13.25;;
32216;SDS011;67098;51.140;4.088;2024-02-28T05:14:27;23.35;;;12.95;;
32216;SDS011;67098;51.140;4.088;2024-02-28T05:16:53;27.15;;;13.10;;
32216;SDS011;67098;51.140;4.088;2024-02-28T05:19:18;27.42;;;12.77;;
32216;SDS011;67098;51.140;4.088;2024-02-28T05:21:44;46.03;;;13.52;;
32216;SDS011;67098;51.140;4.088;2024-02-28T05:24:11;26.85;;;13.73;;
32216;SDS011;67098;51.140;4.088;2024-02-28T05:26:37;22.88;;;13.10;;
32216;SDS011;67098;51.140;4.088;2024-02-28T05:29:04;18.13;;;12.07;;
32216;SDS011;67098;51.140;4.088;2024-02-28T05:31:30;26.38;;;13.05;;
32216;SDS011;67098;51.140;4.088;2024-02-28T05:33:57;28.77;;;13.93;;
32216;SDS011;67098;51.140;4.088;2024-02-28T05:36:25;24.80;;;14.02;;
32216;SDS011;67098;51.140;4.088;2024-02-28T05:38:52;26.52;;;13.13;;
32216;SDS011;67098;51.140;4.088;2024-02-28T05:41:19;30.70;;;14.07;;
32216;SDS011;67098;51.140;4.088;2024-02-28T05:43:45;28.10;;;13.07;;
32216;SDS011;67098;51.140;4.088;2024-02-28T05:46:12;28.50;;;13.80;;
32216;SDS011;67098;51.140;4.088;2024-02-28T05:48:38;32.05;;;13.70;;
32216;SDS011;67098;51.140;4.088;2024-02-28T05:51:06;28.77;;;14.25;;
32216;SDS011;67098;51.140;4.088;2024-02-28T05:53:32;28.73;;;14.20;;
32216;SDS011;67098;51.140;4.088;2024-02-28T05:56:01;29.20;;;14.02;;
32216;SDS011;67098;51.140;4.088;2024-02-28T05:58:27;30.13;;;15.13;;
32216;SDS011;67098;51.140;4.088;2024-02-28T06:00:53;33.63;;;16.48;;
32216;SDS011;67098;51.140;4.088;2024-02-28T06:03:19;37.38;;;17.17;;
32216;SDS011;67098;51.140;4.088;2024-02-28T06:05:45;40.33;;;16.52;;
32216;SDS011;67098;51.140;4.088;2024-02-28T06:08:12;34.50;;;15.60;;
32216;SDS011;67098;51.140;4.088;2024-02-28T06:10:38;32.88;;;15.80;;
32216;SDS011;67098;51.140;4.088;2024-02-28T06:13:04;39.63;;;17.08;;
32216;SDS011;67098;51.140;4.088;2024-02-28T06:15:29;36.83;;;16.80;;
32216;SDS011;67098;51.140;4.088;2024-02-28T06:17:56;38.28;;;17.00;;
32216;SDS011;67098;51.140;4.088;2024-02-28T06:20:22;43.58;;;19.65;;
32216;SDS011;67098;51.140;4.088;2024-02-28T06:22:48;45.08;;;18.27;;
32216;SDS011;67098;51.140;4.088;2024-02-28T06:25:14;36.67;;;16.83;;
32216;SDS011;67098;51.140;4.088;2024-02-28T06:27:44;29.50;;;14.97;;
32216;SDS011;67098;51.140;4.088;2024-02-28T06:30:10;27.85;;;15.15;;
32216;SDS011;67098;51.140;4.088;2024-02-28T06:32:37;29.98;;;14.48;;
32216;SDS011;67098;51.140;4.088;2024-02-28T06:35:04;30.08;;;15.45;;
32216;SDS011;67098;51.140;4.088;2024-02-28T06:37:30;35.08;;;16.05;;
32216;SDS011;67098;51.140;4.088;2024-02-28T06:39:56;31.92;;;15.50;;
32216;SDS011;67098;51.140;4.088;2024-02-28T06:42:21;29.10;;;15.23;;
32216;SDS011;67098;51.140;4.088;2024-02-28T06:44:47;27.83;;;14.93;;
32216;SDS011;67098;51.140;4.088;2024-02-28T06:47:13;33.50;;;14.60;;
32216;SDS011;67098;51.140;4.088;2024-02-28T06:49:39;29.05;;;13.68;;
32216;SDS011;67098;51.140;4.088;2024-02-28T06:52:04;28.27;;;14.07;;
32216;SDS011;67098;51.140;4.088;2024-02-28T06:54:30;33.30;;;14.70;;
32216;SDS011;67098;51.140;4.088;2024-02-28T06:56:57;32.50;;;15.38;;
32216;SDS011;67098;51.140;4.088;2024-02-28T06:59:23;25.45;;;13.50;;
32216;SDS011;67098;51.140;4.088;2024-02-28T07:01:48;28.55;;;15.05;;
32216;SDS011;67098;51.140;4.088;2024-02-28T07:04:14;28.30;;;15.52;;
32216;SDS011;67098;51.140;4.088;2024-02-28T07:06:40;27.35;;;15.23;;
32216;SDS011;67098;51.140;4.088;2024-02-28T07:09:09;26.02;;;15.50;;
32216;SDS011;67098;51.140;4.088;2024-02-28T07:11:37;25.92;;;15.90;;
32216;SDS011;67098;51.140;4.088;2024-02-28T07:14:03;34.38;;;18.08;;
32216;SDS011;67098;51.140;4.088;2024-02-28T07:16:30;33.20;;;18.05;;
32216;SDS011;67098;51.140;4.088;2024-02-28T07:18:57;42.00;;;19.38;;
32216;SDS011;67098;51.140;4.088;2024-02-28T07:21:23;35.25;;;17.73;;
32216;SDS011;67098;51.140;4.088;2024-02-28T07:23:49;37.78;;;18.67;;
32216;SDS011;67098;51.140;4.088;2024-02-28T07:26:15;39.55;;;18.10;;
32216;SDS011;67098;51.140;4.088;2024-02-28T07:28:41;33.80;;;19.13;;
32216;SDS011;67098;51.140;4.088;2024-02-28T07:31:14;35.78;;;19.02;;
32216;SDS011;67098;51.140;4.088;2024-02-28T07:33:43;31.40;;;18.35;;
32216;SDS011;67098;51.140;4.088;2024-02-28T07:36:08;34.88;;;18.35;;
32216;SDS011;67098;51.140;4.088;2024-02-28T07:38:35;42.67;;;19.85;;
32216;SDS011;67098;51.140;4.088;2024-02-28T07:41:01;38.90;;;19.25;;
32216;SDS011;67098;51.140;4.088;2024-02-28T07:43:27;37.70;;;19.20;;
32216;SDS011;67098;51.140;4.088;2024-02-28T07:45:57;41.38;;;19.25;;
32216;SDS011;67098;51.140;4.088;2024-02-28T07:48:23;34.97;;;18.40;;
32216;SDS011;67098;51.140;4.088;2024-02-28T07:50:49;34.75;;;19.08;;
32216;SDS011;67098;51.140;4.088;2024-02-28T07:53:16;37.13;;;19.65;;
32216;SDS011;67098;51.140;4.088;2024-02-28T07:55:42;39.80;;;20.27;;
32216;SDS011;67098;51.140;4.088;2024-02-28T07:58:08;38.03;;;20.33;;
32216;SDS011;67098;51.140;4.088;2024-02-28T08:00:34;32.33;;;19.55;;
32216;SDS011;67098;51.140;4.088;2024-02-28T08:03:00;37.03;;;21.50;;
32216;SDS011;67098;51.140;4.088;2024-02-28T08:05:26;39.05;;;20.77;;
32216;SDS011;67098;51.140;4.088;2024-02-28T08:07:53;38.42;;;20.65;;
32216;SDS011;67098;51.140;4.088;2024-02-28T08:10:19;35.95;;;20.35;;
32216;SDS011;67098;51.140;4.088;2024-02-28T08:12:45;41.72;;;20.77;;
32216;SDS011;67098;51.140;4.088;2024-02-28T08:15:11;37.95;;;20.10;;
32216;SDS011;67098;51.140;4.088;2024-02-28T08:17:36;45.00;;;24.17;;
32216;SDS011;67098;51.140;4.088;2024-02-28T08:20:05;38.90;;;20.98;;
32216;SDS011;67098;51.140;4.088;2024-02-28T08:22:31;43.88;;;22.15;;
32216;SDS011;67098;51.140;4.088;2024-02-28T08:24:57;43.80;;;22.33;;
32216;SDS011;67098;51.140;4.088;2024-02-28T08:27:23;44.85;;;22.65;;
32216;SDS011;67098;51.140;4.088;2024-02-28T08:29:49;46.63;;;22.45;;
32216;SDS011;67098;51.140;4.088;2024-02-28T08:32:15;41.17;;;22.17;;
32216;SDS011;67098;51.140;4.088;2024-02-28T08:34:45;46.55;;;23.90;;
32216;SDS011;67098;51.140;4.088;2024-02-28T08:37:14;40.38;;;21.50;;
32216;SDS011;67098;51.140;4.088;2024-02-28T08:39:41;46.35;;;22.92;;
32216;SDS011;67098;51.140;4.088;2024-02-28T08:42:06;42.47;;;22.33;;
32216;SDS011;67098;51.140;4.088;2024-02-28T08:44:32;46.97;;;23.50;;
32216;SDS011;67098;51.140;4.088;2024-02-28T08:46:58;52.65;;;22.90;;
32216;SDS011;67098;51.140;4.088;2024-02-28T08:49:24;42.15;;;22.88;;
32216;SDS011;67098;51.140;4.088;2024-02-28T08:51:49;50.08;;;24.15;;
32216;SDS011;67098;51.140;4.088;2024-02-28T08:54:15;43.50;;;22.13;;
32216;SDS011;67098;51.140;4.088;2024-02-28T08:56:41;50.53;;;24.05;;
32216;SDS011;67098;51.140;4.088;2024-02-28T08:59:06;42.80;;;21.80;;
32216;SDS011;67098;51.140;4.088;2024-02-28T09:01:32;41.35;;;21.77;;
32216;SDS011;67098;51.140;4.088;2024-02-28T09:03:59;37.42;;;20.77;;
32216;SDS011;67098;51.140;4.088;2024-02-28T09:06:25;47.20;;;20.75;;
32216;SDS011;67098;51.140;4.088;2024-02-28T09:08:52;42.70;;;19.88;;
32216;SDS011;67098;51.140;4.088;2024-02-28T09:11:18;37.55;;;20.42;;
32216;SDS011;67098;51.140;4.088;2024-02-28T09:13:43;38.33;;;19.35;;
32216;SDS011;67098;51.140;4.088;2024-02-28T09:16:09;34.85;;;17.92;;
32216;SDS011;67098;51.140;4.088;2024-02-28T09:18:35;39.35;;;18.48;;
32216;SDS011;67098;51.140;4.088;2024-02-28T09:21:01;34.67;;;17.58;;
32216;SDS011;67098;51.140;4.088;2024-02-28T09:23:26;36.22;;;18.13;;
32216;SDS011;67098;51.140;4.088;2024-02-28T09:25:53;39.35;;;18.60;;
32216;SDS011;67098;51.140;4.088;2024-02-28T09:28:21;33.97;;;19.10;;
32216;SDS011;67098;51.140;4.088;2024-02-28T09:30:47;39.53;;;19.02;;
32216;SDS011;67098;51.140;4.088;2024-02-28T09:33:15;44.47;;;17.98;;
32216;SDS011;67098;51.140;4.088;2024-02-28T09:35:41;42.42;;;18.95;;
32216;SDS011;67098;51.140;4.088;2024-02-28T09:38:07;37.10;;;18.67;;
32216;SDS011;67098;51.140;4.088;2024-02-28T09:40:33;37.97;;;17.42;;
32216;SDS011;67098;51.140;4.088;2024-02-28T09:43:02;37.05;;;18.13;;
32216;SDS011;67098;51.140;4.088;2024-02-28T09:45:31;40.20;;;17.30;;
32216;SDS011;67098;51.140;4.088;2024-02-28T09:47:58;37.70;;;18.38;;
32216;SDS011;67098;51.140;4.088;2024-02-28T09:50:27;39.45;;;17.90;;
32216;SDS011;67098;51.140;4.088;2024-02-28T09:52:53;42.00;;;18.35;;
32216;SDS011;67098;51.140;4.088;2024-02-28T09:55:19;34.40;;;18.48;;
32216;SDS011;67098;51.140;4.088;2024-02-28T09:57:48;35.90;;;17.33;;
32216;SDS011;67098;51.140;4.088;2024-02-28T10:00:17;38.20;;;17.90;;
32216;SDS011;67098;51.140;4.088;2024-02-28T10:02:46;39.53;;;17.35;;
32216;SDS011;67098;51.140;4.088;2024-02-28T10:07:46;34.72;;;17.15;;
32216;SDS011;67098;51.140;4.088;2024-02-28T10:10:14;34.97;;;16.15;;
32216;SDS011;67098;51.140;4.088;2024-02-28T10:12:42;39.92;;;16.27;;
32216;SDS011;67098;51.140;4.088;2024-02-28T10:15:09;37.20;;;15.60;;
32216;SDS011;67098;51.140;4.088;2024-02-28T10:17:35;30.13;;;16.13;;
32216;SDS011;67098;51.140;4.088;2024-02-28T10:20:01;27.63;;;15.02;;
32216;SDS011;67098;51.140;4.088;2024-02-28T10:22:38;28.77;;;15.02;;
32216;SDS011;67098;51.140;4.088;2024-02-28T10:25:04;33.00;;;15.20;;
32216;SDS011;67098;51.140;4.088;2024-02-28T10:27:33;25.88;;;14.68;;
32216;SDS011;67098;51.140;4.088;2024-02-28T10:30:00;33.75;;;16.23;;
32216;SDS011;67098;51.140;4.088;2024-02-28T10:32:30;26.45;;;14.90;;
32216;SDS011;67098;51.140;4.088;2024-02-28T10:34:58;27.52;;;15.00;;
32216;SDS011;67098;51.140;4.088;2024-02-28T10:37:24;25.65;;;13.75;;
32216;SDS011;67098;51.140;4.088;2024-02-28T10:39:51;25.20;;;12.68;;
32216;SDS011;67098;51.140;4.088;2024-02-28T10:42:19;28.58;;;13.38;;
32216;SDS011;67098;51.140;4.088;2024-02-28T10:44:49;25.77;;;13.77;;
32216;SDS011;67098;51.140;4.088;2024-02-28T10:47:18;32.90;;;15.68;;
32216;SDS011;67098;51.140;4.088;2024-02-28T10:49:45;31.90;;;17.52;;
32216;SDS011;67098;51.140;4.088;2024-02-28T10:52:11;28.10;;;15.00;;
32216;SDS011;67098;51.140;4.088;2024-02-28T10:54:40;24.95;;;13.38;;
32216;SDS011;67098;51.140;4.088;2024-02-28T10:57:07;25.05;;;13.73;;
32216;SDS011;67098;51.140;4.088;2024-02-28T10:59:35;28.45;;;15.18;;
32216;SDS011;67098;51.140;4.088;2024-02-28T11:02:02;22.13;;;13.23;;
32216;SDS011;67098;51.140;4.088;2024-02-28T11:04:29;25.67;;;13.75;;
32216;SDS011;67098;51.140;4.088;2024-02-28T11:06:55;26.40;;;13.55;;
32216;SDS011;67098;51.140;4.088;2024-02-28T11:09:22;28.83;;;14.73;;
32216;SDS011;67098;51.140;4.088;2024-02-28T11:11:52;37.17;;;19.08;;
32216;SDS011;67098;51.140;4.088;2024-02-28T11:14:18;30.70;;;15.95;;
32216;SDS011;67098;51.140;4.088;2024-02-28T11:16:47;27.33;;;14.40;;
32216;SDS011;67098;51.140;4.088;2024-02-28T11:19:24;28.13;;;13.85;;
32216;SDS011;67098;51.140;4.088;2024-02-28T11:21:56;23.58;;;13.25;;
32216;SDS011;67098;51.140;4.088;2024-02-28T11:24:32;25.40;;;13.02;;
32216;SDS011;67098;51.140;4.088;2024-02-28T11:26:59;20.60;;;11.90;;
32216;SDS011;67098;51.140;4.088;2024-02-28T11:29:27;26.27;;;12.45;;
32216;SDS011;67098;51.140;4.088;2024-02-28T11:31:54;21.17;;;12.77;;
32216;SDS011;67098;51.140;4.088;2024-02-28T11:34:20;21.05;;;12.48;;
32216;SDS011;67098;51.140;4.088;2024-02-28T11:36:47;19.42;;;12.27;;
32216;SDS011;67098;51.140;4.088;2024-02-28T11:39:14;23.52;;;12.80;;
32216;SDS011;67098;51.140;4.088;2024-02-28T11:41:40;24.77;;;13.27;;
32216;SDS011;67098;51.140;4.088;2024-02-28T11:44:07;24.35;;;12.48;;
32216;SDS011;67098;51.140;4.088;2024-02-28T11:46:32;25.88;;;13.80;;
32216;SDS011;67098;51.140;4.088;2024-02-28T11:48:58;21.75;;;12.77;;
32216;SDS011;67098;51.140;4.088;2024-02-28T11:51:26;21.83;;;11.82;;
32216;SDS011;67098;51.140;4.088;2024-02-28T11:53:52;26.25;;;12.80;;
32216;SDS011;67098;51.140;4.088;2024-02-28T11:56:18;28.77;;;13.77;;
32216;SDS011;67098;51.140;4.088;2024-02-28T11:58:52;21.73;;;12.35;;
32216;SDS011;67098;51.140;4.088;2024-02-28T12:01:19;23.92;;;13.13;;
32216;SDS011;67098;51.140;4.088;2024-02-28T12:03:57;24.02;;;12.18;;
32216;SDS011;67098;51.140;4.088;2024-02-28T12:06:23;22.25;;;12.82;;
32216;SDS011;67098;51.140;4.088;2024-02-28T12:08:48;19.65;;;11.68;;
32216;SDS011;67098;51.140;4.088;2024-02-28T12:11:15;22.77;;;12.25;;
32216;SDS011;67098;51.140;4.088;2024-02-28T12:13:41;24.98;;;12.18;;
32216;SDS011;67098;51.140;4.088;2024-02-28T12:16:07;22.98;;;12.13;;
32216;SDS011;67098;51.140;4.088;2024-02-28T12:18:34;17.00;;;10.82;;
32216;SDS011;67098;51.140;4.088;2024-02-28T12:21:01;15.85;;;10.10;;
32216;SDS011;67098;51.140;4.088;2024-02-28T12:23:29;21.50;;;10.70;;
32216;SDS011;67098;51.140;4.088;2024-02-28T12:25:54;19.45;;;10.40;;
32216;SDS011;67098;51.140;4.088;2024-02-28T12:28:20;21.08;;;9.55;;
32216;SDS011;67098;51.140;4.088;2024-02-28T12:30:46;19.63;;;9.98;;
32216;SDS011;67098;51.140;4.088;2024-02-28T12:33:12;13.63;;;8.57;;
32216;SDS011;67098;51.140;4.088;2024-02-28T12:35:38;19.60;;;9.85;;
32216;SDS011;67098;51.140;4.088;2024-02-28T12:38:04;16.35;;;9.25;;
32216;SDS011;67098;51.140;4.088;2024-02-28T12:40:30;13.82;;;8.60;;
32216;SDS011;67098;51.140;4.088;2024-02-28T12:42:56;15.18;;;9.40;;
32216;SDS011;67098;51.140;4.088;2024-02-28T12:45:22;15.00;;;8.32;;
32216;SDS011;67098;51.140;4.088;2024-02-28T12:47:48;14.65;;;7.95;;
32216;SDS011;67098;51.140;4.088;2024-02-28T12:50:13;16.83;;;8.85;;
32216;SDS011;67098;51.140;4.088;2024-02-28T12:52:39;15.65;;;8.07;;
32216;SDS011;67098;51.140;4.088;2024-02-28T12:55:05;16.33;;;8.07;;
32216;SDS011;67098;51.140;4.088;2024-02-28T12:57:31;15.30;;;7.65;;
32216;SDS011;67098;51.140;4.088;2024-02-28T12:59:56;17.80;;;9.15;;
32216;SDS011;67098;51.140;4.088;2024-02-28T13:02:22;15.30;;;7.60;;
32216;SDS011;67098;51.140;4.088;2024-02-28T13:04:48;14.07;;;7.70;;
32216;SDS011;67098;51.140;4.088;2024-02-28T13:07:14;12.68;;;6.90;;
32216;SDS011;67098;51.140;4.088;2024-02-28T13:09:40;13.73;;;7.20;;
32216;SDS011;67098;51.140;4.088;2024-02-28T13:12:07;14.18;;;7.25;;
32216;SDS011;67098;51.140;4.088;2024-02-28T13:14:33;13.88;;;6.50;;
32216;SDS011;67098;51.140;4.088;2024-02-28T13:16:59;10.73;;;6.28;;
32216;SDS011;67098;51.140;4.088;2024-02-28T13:19:25;13.05;;;6.43;;
32216;SDS011;67098;51.140;4.088;2024-02-28T13:21:51;11.27;;;5.88;;
32216;SDS011;67098;51.140;4.088;2024-02-28T13:24:17;13.18;;;6.13;;
32216;SDS011;67098;51.140;4.088;2024-02-28T13:26:43;10.30;;;6.03;;
32216;SDS011;67098;51.140;4.088;2024-02-28T13:29:09;12.50;;;6.85;;
32216;SDS011;67098;51.140;4.088;2024-02-28T13:31:35;11.63;;;5.90;;
32216;SDS011;67098;51.140;4.088;2024-02-28T13:34:01;11.32;;;5.97;;
32216;SDS011;67098;51.140;4.088;2024-02-28T13:36:28;15.60;;;6.15;;
32216;SDS011;67098;51.140;4.088;2024-02-28T13:38:57;13.65;;;5.88;;
32216;SDS011;67098;51.140;4.088;2024-02-28T13:41:23;13.13;;;7.28;;
32216;SDS011;67098;51.140;4.088;2024-02-28T13:43:49;12.00;;;5.63;;
32216;SDS011;67098;51.140;4.088;2024-02-28T13:46:15;14.68;;;6.18;;
32216;SDS011;67098;51.140;4.088;2024-02-28T13:48:40;9.45;;;5.57;;
32216;SDS011;67098;51.140;4.088;2024-02-28T13:51:06;9.30;;;5.20;;
32216;SDS011;67098;51.140;4.088;2024-02-28T13:53:32;10.27;;;6.00;;
32216;SDS011;67098;51.140;4.088;2024-02-28T13:55:57;10.15;;;5.88;;
32216;SDS011;67098;51.140;4.088;2024-02-28T13:58:23;10.07;;;5.90;;
32216;SDS011;67098;51.140;4.088;2024-02-28T14:00:49;11.93;;;5.97;;
32216;SDS011;67098;51.140;4.088;2024-02-28T14:03:15;11.73;;;5.50;;
32216;SDS011;67098;51.140;4.088;2024-02-28T14:05:41;12.73;;;5.72;;
32216;SDS011;67098;51.140;4.088;2024-02-28T14:08:06;12.27;;;5.60;;
32216;SDS011;67098;51.140;4.088;2024-02-28T14:10:33;12.75;;;5.85;;
32216;SDS011;67098;51.140;4.088;2024-02-28T14:12:59;13.57;;;5.97;;
32216;SDS011;67098;51.140;4.088;2024-02-28T14:15:25;11.63;;;6.50;;
32216;SDS011;67098;51.140;4.088;2024-02-28T14:17:51;10.13;;;5.70;;
32216;SDS011;67098;51.140;4.088;2024-02-28T14:20:17;9.40;;;4.90;;